createdAt,value
2023-03-04T00:00:47.021Z,3.40
2023-03-04T00:01:47.019Z,3.70
2023-03-04T00:02:47.072Z,3.40
2023-03-04T00:03:47.017Z,3.70
2023-03-04T00:04:47.097Z,3.80
2023-03-04T00:05:46.977Z,3.70
2023-03-04T00:06:46.946Z,3.50
2023-03-04T00:07:46.966Z,3.30
2023-03-04T00:08:46.940Z,3.10
2023-03-04T00:09:46.982Z,3.40
2023-03-04T00:10:46.911Z,4.00
2023-03-04T00:11:46.897Z,3.50
2023-03-04T00:12:46.882Z,3.60
2023-03-04T00:13:46.868Z,3.50
2023-03-04T00:14:46.864Z,3.50
2023-03-04T00:15:46.864Z,3.80
2023-03-04T00:16:46.939Z,4.10
2023-03-04T00:17:46.848Z,3.60
2023-03-04T00:18:46.823Z,3.60
2023-03-04T00:19:46.856Z,3.50
2023-03-04T00:20:46.842Z,3.40
2023-03-04T00:21:46.823Z,3.40
2023-03-04T00:22:48.002Z,3.70
2023-03-04T00:23:46.805Z,3.60
2023-03-04T00:24:46.775Z,3.80
2023-03-04T00:25:46.777Z,3.20
2023-03-04T00:26:46.785Z,3.70
2023-03-04T00:27:46.746Z,3.60
2023-03-04T00:28:46.740Z,3.60
2023-03-04T00:29:46.805Z,3.40
2023-03-04T00:30:46.712Z,3.50
2023-03-04T00:31:46.826Z,3.80
2023-03-04T00:32:46.824Z,3.80
2023-03-04T00:33:46.685Z,3.70
2023-03-04T00:34:46.679Z,3.30
2023-03-04T00:35:46.718Z,4.30
2023-03-04T00:36:46.653Z,3.90
2023-03-04T00:37:46.646Z,3.60
2023-03-04T00:38:46.631Z,3.80
2023-03-04T00:39:46.743Z,3.20
2023-03-04T00:40:46.630Z,3.80
2023-03-04T00:41:46.587Z,3.60
2023-03-04T00:42:46.588Z,3.60
2023-03-04T00:43:46.596Z,3.30
2023-03-04T00:44:46.567Z,4.20
2023-03-04T00:45:46.584Z,3.50
2023-03-04T00:46:46.560Z,3.50
2023-03-04T00:47:46.551Z,4.00
2023-03-04T00:48:46.523Z,3.60
2023-03-04T00:49:46.572Z,3.60
2023-03-04T00:50:46.509Z,3.70
2023-03-04T00:51:46.507Z,3.70
2023-03-04T00:52:46.503Z,4.00
2023-03-04T00:53:46.474Z,3.70
2023-03-04T00:54:46.465Z,3.20
2023-03-04T00:55:46.495Z,3.70
2023-03-04T00:56:46.451Z,4.20
2023-03-04T00:57:46.455Z,3.90
2023-03-04T00:58:46.404Z,3.60
2023-03-04T00:59:46.439Z,3.80
2023-03-04T01:00:46.417Z,3.80
2023-03-04T01:01:46.416Z,3.80
2023-03-04T01:02:46.422Z,3.30
2023-03-04T01:03:46.384Z,3.60
2023-03-04T01:04:46.364Z,3.80
2023-03-04T01:05:46.410Z,3.40
2023-03-04T01:06:46.352Z,3.50
2023-03-04T01:07:46.326Z,3.50
2023-03-04T01:08:46.358Z,3.60
2023-03-04T01:09:46.318Z,4.20
2023-03-04T01:10:46.283Z,3.20
2023-03-04T01:11:46.345Z,3.60
2023-03-04T01:12:46.358Z,3.40
2023-03-04T01:13:46.279Z,3.90
2023-03-04T01:14:46.250Z,3.70
2023-03-04T01:15:46.292Z,3.70
2023-03-04T01:16:46.317Z,3.30
2023-03-04T01:17:46.321Z,3.50
2023-03-04T01:18:46.223Z,3.50
2023-03-04T01:19:46.219Z,3.60
2023-03-04T01:20:46.225Z,3.90
2023-03-04T01:21:46.197Z,3.60
2023-03-04T01:22:46.171Z,3.80
2023-03-04T01:23:46.172Z,4.40
2023-03-04T01:24:46.186Z,4.00
2023-03-04T01:25:46.178Z,3.50
2023-03-04T01:26:46.129Z,4.10
2023-03-04T01:27:46.139Z,3.40
2023-03-04T01:28:46.109Z,3.50
2023-03-04T01:29:46.130Z,3.90
2023-03-04T01:30:46.080Z,3.60
2023-03-04T01:31:46.087Z,3.50
2023-03-04T01:32:46.075Z,3.20
2023-03-04T01:33:46.069Z,3.50
2023-03-04T01:34:46.063Z,4.30
2023-03-04T01:35:46.119Z,3.80
2023-03-04T01:36:46.035Z,3.80
2023-03-04T01:37:46.066Z,3.20
2023-03-04T01:38:46.079Z,3.80
2023-03-04T01:39:46.145Z,4.00
2023-03-04T01:40:46.002Z,3.10
2023-03-04T01:41:46.001Z,3.20
2023-03-04T01:42:45.994Z,3.90
2023-03-04T01:43:45.990Z,3.60
2023-03-04T01:44:45.983Z,3.30
2023-03-04T01:45:46.014Z,3.50
2023-03-04T01:46:45.967Z,3.10
2023-03-04T01:47:45.941Z,3.60
2023-03-04T01:48:45.941Z,3.50
2023-03-04T01:49:45.887Z,3.20
2023-03-04T01:50:45.891Z,3.50
2023-03-04T01:51:45.890Z,3.30
2023-03-04T01:52:45.892Z,3.40
2023-03-04T01:53:45.888Z,3.40
2023-03-04T01:54:45.838Z,3.20
2023-03-04T01:55:45.842Z,3.30
2023-03-04T01:56:45.827Z,3.60
2023-03-04T01:57:45.831Z,3.40
2023-03-04T01:58:45.795Z,3.70
2023-03-04T01:59:45.807Z,3.50
2023-03-04T02:00:45.838Z,3.50
2023-03-04T02:01:45.873Z,3.70
2023-03-04T02:02:45.768Z,3.00
2023-03-04T02:03:45.769Z,3.40
2023-03-04T02:04:45.859Z,3.40
2023-03-04T02:05:45.744Z,3.60
2023-03-04T02:06:45.739Z,3.30
2023-03-04T02:07:45.752Z,3.20
2023-03-04T02:08:45.710Z,3.00
2023-03-04T02:09:45.707Z,3.80
2023-03-04T02:10:45.678Z,3.20
2023-03-04T02:11:45.678Z,3.00
2023-03-04T02:12:45.679Z,3.10
2023-03-04T02:13:45.685Z,3.20
2023-03-04T02:14:45.666Z,2.90
2023-03-04T02:15:45.729Z,3.80
2023-03-04T02:16:45.649Z,3.20
2023-03-04T02:17:45.617Z,3.50
2023-03-04T02:18:45.599Z,2.70
2023-03-04T02:19:45.625Z,4.00
2023-03-04T02:20:45.627Z,3.50
2023-03-04T02:21:45.635Z,3.00
2023-03-04T02:22:45.591Z,3.10
2023-03-04T02:23:45.565Z,3.40
2023-03-04T02:24:45.553Z,2.90
2023-03-04T02:25:45.544Z,3.90
2023-03-04T02:26:45.542Z,2.80
2023-03-04T02:27:45.566Z,3.10
2023-03-04T02:28:45.545Z,3.10
2023-03-04T02:29:45.504Z,3.10
2023-03-04T02:30:45.496Z,3.30
2023-03-04T02:31:45.576Z,2.90
2023-03-04T02:32:45.476Z,3.30
2023-03-04T02:33:45.478Z,3.30
2023-03-04T02:34:46.317Z,3.00
2023-03-04T02:35:45.535Z,3.40
2023-03-04T02:36:45.421Z,3.90
2023-03-04T02:37:45.427Z,3.70
2023-03-04T02:38:45.450Z,3.80
2023-03-04T02:39:45.431Z,3.40
2023-03-04T02:40:45.423Z,3.40
2023-03-04T02:41:45.381Z,2.70
2023-03-04T02:42:45.373Z,3.30
2023-03-04T02:43:45.377Z,3.20
2023-03-04T02:44:45.407Z,3.10
2023-03-04T02:45:45.355Z,3.10
2023-03-04T02:46:45.363Z,2.60
2023-03-04T02:47:45.320Z,3.30
2023-03-04T02:48:45.312Z,3.00
2023-03-04T02:49:45.306Z,2.80
2023-03-04T02:50:45.340Z,3.10
2023-03-04T02:51:45.283Z,3.40
2023-03-04T02:52:45.260Z,3.10
2023-03-04T02:53:45.295Z,3.40
2023-03-04T02:54:45.266Z,3.60
2023-03-04T02:55:45.263Z,3.10
2023-03-04T02:56:45.251Z,3.20
2023-03-04T02:57:45.220Z,3.50
2023-03-04T02:58:45.240Z,3.40
2023-03-04T02:59:45.204Z,2.80
2023-03-04T03:00:45.236Z,3.60
2023-03-04T03:01:45.253Z,3.20
2023-03-04T03:02:45.196Z,3.20
2023-03-04T03:03:45.200Z,3.30
2023-03-04T03:04:45.160Z,3.30
2023-03-04T03:05:45.194Z,3.20
2023-03-04T03:06:45.155Z,3.40
2023-03-04T03:07:45.168Z,3.40
2023-03-04T03:08:45.129Z,3.10
2023-03-04T03:09:45.140Z,2.80
2023-03-04T03:10:45.084Z,3.60
2023-03-04T03:11:45.070Z,3.20
2023-03-04T03:12:45.077Z,3.50
2023-03-04T03:13:45.105Z,3.00
2023-03-04T03:14:45.063Z,2.80
2023-03-04T03:15:45.043Z,3.20
2023-03-04T03:16:45.034Z,2.80
2023-03-04T03:17:45.019Z,2.80
2023-03-04T03:18:45.047Z,3.20
2023-03-04T03:19:45.022Z,2.70
2023-03-04T03:20:44.979Z,2.90
2023-03-04T03:21:45.034Z,2.90
2023-03-04T03:22:45.009Z,3.20
2023-03-04T03:23:44.981Z,3.00
2023-03-04T03:24:44.944Z,3.00
2023-03-04T03:25:44.983Z,3.20
2023-03-04T03:26:44.927Z,2.90
2023-03-04T03:27:44.947Z,3.00
2023-03-04T03:28:44.913Z,2.90
2023-03-04T03:29:44.941Z,2.70
2023-03-04T03:30:44.901Z,3.20
2023-03-04T03:31:44.945Z,3.00
2023-03-04T03:32:44.870Z,2.80
2023-03-04T03:33:44.850Z,3.10
2023-03-04T03:34:44.849Z,2.90
2023-03-04T03:35:44.862Z,2.80
2023-03-04T03:36:44.853Z,2.80
2023-03-04T03:37:44.827Z,3.10
2023-03-04T03:38:44.795Z,2.80
2023-03-04T03:39:44.821Z,3.70
2023-03-04T03:40:44.948Z,2.50
2023-03-04T03:41:44.938Z,3.90
2023-03-04T03:42:44.776Z,3.10
2023-03-04T03:43:44.780Z,2.50
2023-03-04T03:44:44.764Z,2.90
2023-03-04T03:45:44.811Z,2.90
2023-03-04T03:46:44.777Z,3.10
2023-03-04T03:47:44.702Z,3.20
2023-03-04T03:48:44.682Z,3.10
2023-03-04T03:49:44.698Z,3.10
2023-03-04T03:50:44.679Z,2.80
2023-03-04T03:51:44.704Z,2.80
2023-03-04T03:52:44.696Z,2.80
2023-03-04T03:53:44.678Z,2.50
2023-03-04T03:54:44.657Z,2.30
2023-03-04T03:55:44.621Z,2.40
2023-03-04T03:56:44.652Z,2.60
2023-03-04T03:57:44.623Z,3.00
2023-03-04T03:58:44.622Z,2.30
2023-03-04T03:59:44.629Z,2.70
2023-03-04T04:00:44.594Z,2.70
2023-03-04T04:01:44.658Z,2.80
2023-03-04T04:02:44.713Z,2.40
2023-03-04T04:03:44.556Z,2.50
2023-03-04T04:04:44.602Z,2.80
2023-03-04T04:05:44.558Z,2.50
2023-03-04T04:06:44.510Z,2.60
2023-03-04T04:07:44.526Z,2.80
2023-03-04T04:08:44.650Z,2.50
2023-03-04T04:09:44.527Z,2.80
2023-03-04T04:10:44.509Z,2.60
2023-03-04T04:11:44.531Z,2.60
2023-03-04T04:12:44.611Z,2.40
2023-03-04T04:13:44.481Z,2.80
2023-03-04T04:14:44.444Z,2.40
2023-03-04T04:15:44.423Z,2.90
2023-03-04T04:16:44.489Z,2.50
2023-03-04T04:17:44.434Z,3.00
2023-03-04T04:18:44.441Z,3.30
2023-03-04T04:19:44.378Z,2.60
2023-03-04T04:20:44.392Z,2.00
2023-03-04T04:21:44.384Z,2.50
2023-03-04T04:22:44.386Z,2.60
2023-03-04T04:23:44.357Z,3.10
2023-03-04T04:24:44.423Z,2.80
2023-03-04T04:25:44.326Z,2.30
2023-03-04T04:26:44.341Z,2.30
2023-03-04T04:27:44.318Z,2.90
2023-03-04T04:28:44.342Z,2.50
2023-03-04T04:29:44.301Z,2.70
2023-03-04T04:30:44.328Z,2.70
2023-03-04T04:31:44.256Z,2.40
2023-03-04T04:32:44.253Z,2.30
2023-03-04T04:33:44.289Z,2.80
2023-03-04T04:34:44.268Z,2.60
2023-03-04T04:35:44.239Z,2.70
2023-03-04T04:36:44.229Z,2.70
2023-03-04T04:37:44.214Z,3.30
2023-03-04T04:38:44.189Z,2.40
2023-03-04T04:39:44.234Z,2.30
2023-03-04T04:40:44.202Z,3.00
2023-03-04T04:41:44.170Z,2.40
2023-03-04T04:42:44.173Z,2.60
2023-03-04T04:43:44.143Z,2.30
2023-03-04T04:44:44.159Z,2.40
2023-03-04T04:45:44.161Z,2.30
2023-03-04T04:46:44.120Z,2.60
2023-03-04T04:47:44.097Z,2.70
2023-03-04T04:48:44.090Z,2.20
2023-03-04T04:49:44.110Z,2.60
2023-03-04T04:50:44.091Z,2.60
2023-03-04T04:51:44.063Z,2.40
2023-03-04T04:52:44.074Z,2.40
2023-03-04T04:53:44.036Z,2.40
2023-03-04T04:54:44.047Z,2.70
2023-03-04T04:55:44.005Z,2.40
2023-03-04T04:56:44.032Z,2.40
2023-03-04T04:57:44.003Z,2.40
2023-03-04T04:58:44.029Z,2.60
2023-03-04T04:59:43.992Z,2.40
2023-03-04T05:00:43.985Z,2.50
2023-03-04T05:01:44.028Z,2.10
2023-03-04T05:02:43.956Z,2.30
2023-03-04T05:03:44.009Z,2.10
2023-03-04T05:04:43.940Z,2.50
2023-03-04T05:05:43.912Z,2.40
2023-03-04T05:06:43.915Z,2.50
2023-03-04T05:07:43.966Z,2.20
2023-03-04T05:08:43.924Z,2.40
2023-03-04T05:09:43.899Z,2.60
2023-03-04T05:10:43.885Z,2.30
2023-03-04T05:11:43.866Z,2.40
2023-03-04T05:12:43.897Z,2.30
2023-03-04T05:13:43.855Z,2.40
2023-03-04T05:14:43.866Z,3.10
2023-03-04T05:15:43.869Z,2.40
2023-03-04T05:16:43.823Z,2.40
2023-03-04T05:17:43.841Z,2.90
2023-03-04T05:18:43.795Z,2.40
2023-03-04T05:19:43.785Z,2.40
2023-03-04T05:20:43.807Z,2.60
2023-03-04T05:21:43.758Z,2.40
2023-03-04T05:22:43.761Z,2.20
2023-03-04T05:23:43.747Z,3.10
2023-03-04T05:24:43.740Z,2.60
2023-03-04T05:25:43.758Z,2.60
2023-03-04T05:26:43.724Z,2.50
2023-03-04T05:27:43.722Z,2.20
2023-03-04T05:28:43.718Z,2.30
2023-03-04T05:29:43.681Z,2.40
2023-03-04T05:30:43.721Z,2.40
2023-03-04T05:31:43.661Z,2.20
2023-03-04T05:32:43.670Z,2.50
2023-03-04T05:33:43.688Z,2.50
2023-03-04T05:34:43.641Z,2.50
2023-03-04T05:35:43.689Z,2.60
2023-03-04T05:36:43.679Z,2.60
2023-03-04T05:37:43.598Z,2.50
2023-03-04T05:38:43.651Z,2.50
2023-03-04T05:39:43.593Z,2.60
2023-03-04T05:40:43.601Z,2.50
2023-03-04T05:41:43.555Z,2.80
2023-03-04T05:42:43.546Z,2.70
2023-03-04T05:43:43.552Z,3.00
2023-03-04T05:44:43.577Z,2.80
2023-03-04T05:45:43.486Z,2.20
2023-03-04T05:46:43.599Z,3.10
2023-03-04T05:47:43.470Z,2.70
2023-03-04T05:48:43.494Z,2.40
2023-03-04T05:49:43.473Z,2.80
2023-03-04T05:50:43.490Z,2.40
2023-03-04T05:51:43.452Z,2.40
2023-03-04T05:52:43.414Z,2.20
2023-03-04T05:53:43.393Z,2.60
2023-03-04T05:54:43.471Z,2.40
2023-03-04T05:55:43.417Z,2.20
2023-03-04T05:56:43.351Z,2.50
2023-03-04T05:57:43.387Z,2.20
2023-03-04T05:58:43.378Z,2.60
2023-03-04T05:59:43.337Z,2.50
2023-03-04T06:00:43.342Z,2.80
2023-03-04T06:01:43.321Z,2.70
2023-03-04T06:02:43.351Z,3.00
2023-03-04T06:03:43.397Z,2.30
2023-03-04T06:04:43.291Z,2.50
2023-03-04T06:05:43.291Z,2.30
2023-03-04T06:06:43.282Z,2.30
2023-03-04T06:07:43.282Z,2.50
2023-03-04T06:08:43.265Z,2.50
2023-03-04T06:09:43.241Z,2.50
2023-03-04T06:10:43.238Z,2.70
2023-03-04T06:11:43.213Z,2.20
2023-03-04T06:12:43.216Z,2.60
2023-03-04T06:13:43.199Z,2.30
2023-03-04T06:14:43.233Z,2.50
2023-03-04T06:15:43.178Z,2.40
2023-03-04T06:16:43.175Z,2.30
2023-03-04T06:17:43.178Z,2.30
2023-03-04T06:18:43.163Z,2.10
2023-03-04T06:19:43.130Z,2.30
2023-03-04T06:20:43.138Z,2.30
2023-03-04T06:21:43.142Z,2.20
2023-03-04T06:22:43.129Z,2.40
2023-03-04T06:23:43.117Z,2.00
2023-03-04T06:24:43.083Z,2.10
2023-03-04T06:25:43.122Z,2.30
2023-03-04T06:26:43.099Z,2.10
2023-03-04T06:27:43.050Z,2.30
2023-03-04T06:28:43.061Z,2.70
2023-03-04T06:29:43.042Z,2.20
2023-03-04T06:30:43.020Z,2.30
2023-03-04T06:31:43.079Z,2.30
2023-03-04T06:32:43.018Z,1.80
2023-03-04T06:33:42.990Z,2.10
2023-03-04T06:34:43.014Z,2.10
2023-03-04T06:35:42.969Z,2.50
2023-03-04T06:36:42.950Z,2.10
2023-03-04T06:37:42.962Z,1.90
2023-03-04T06:38:42.946Z,2.20
2023-03-04T06:39:43.019Z,2.00
2023-03-04T06:40:42.925Z,2.40
2023-03-04T06:41:42.945Z,2.20
2023-03-04T06:42:42.912Z,1.90
2023-03-04T06:43:42.916Z,2.20
2023-03-04T06:44:42.884Z,1.80
2023-03-04T06:45:42.853Z,2.30
2023-03-04T06:46:42.955Z,2.30
2023-03-04T06:47:42.860Z,1.90
2023-03-04T06:48:42.855Z,2.10
2023-03-04T06:49:42.832Z,2.10
2023-03-04T06:50:42.847Z,2.00
2023-03-04T06:51:42.780Z,2.10
2023-03-04T06:52:42.794Z,1.90
2023-03-04T06:53:42.803Z,2.10
2023-03-04T06:54:42.788Z,1.80
2023-03-04T06:55:42.771Z,2.20
2023-03-04T06:56:42.788Z,2.10
2023-03-04T06:57:42.736Z,2.30
2023-03-04T06:58:42.754Z,2.30
2023-03-04T06:59:42.708Z,1.90
2023-03-04T07:00:42.816Z,2.00
2023-03-04T07:01:42.699Z,2.00
2023-03-04T07:02:42.727Z,2.30
2023-03-04T07:03:42.764Z,2.10
2023-03-04T07:04:42.696Z,1.90
2023-03-04T07:05:42.670Z,1.70
2023-03-04T07:06:42.705Z,1.90
2023-03-04T07:07:42.664Z,2.10
2023-03-04T07:08:42.646Z,2.10
2023-03-04T07:09:42.607Z,2.50
2023-03-04T07:10:42.623Z,1.80
2023-03-04T07:11:42.610Z,1.80
2023-03-04T07:12:42.608Z,2.00
2023-03-04T07:13:42.577Z,1.90
2023-03-04T07:14:42.561Z,1.90
2023-03-04T07:15:42.554Z,1.90
2023-03-04T07:16:42.590Z,1.80
2023-03-04T07:17:42.554Z,1.70
2023-03-04T07:18:42.565Z,2.00
2023-03-04T07:19:42.543Z,1.90
2023-03-04T07:20:42.518Z,2.00
2023-03-04T07:21:42.510Z,1.90
2023-03-04T07:22:42.485Z,1.70
2023-03-04T07:23:42.493Z,1.70
2023-03-04T07:24:42.484Z,1.80
2023-03-04T07:25:42.493Z,2.00
2023-03-04T07:26:42.454Z,1.90
2023-03-04T07:27:42.475Z,1.80
2023-03-04T07:28:42.437Z,1.90
2023-03-04T07:29:42.439Z,2.20
2023-03-04T07:30:42.436Z,1.80
2023-03-04T07:31:42.422Z,2.00
2023-03-04T07:32:42.479Z,2.00
2023-03-04T07:33:42.393Z,2.00
2023-03-04T07:34:42.370Z,1.80
2023-03-04T07:35:42.412Z,1.80
2023-03-04T07:36:42.374Z,3.10
2023-03-04T07:37:42.346Z,2.80
2023-03-04T07:38:42.331Z,2.30
2023-03-04T07:39:42.301Z,2.00
2023-03-04T07:40:42.309Z,1.70
2023-03-04T07:41:42.302Z,2.10
2023-03-04T07:42:42.317Z,1.60
2023-03-04T07:43:42.262Z,1.70
2023-03-04T07:44:42.279Z,2.00
2023-03-04T07:45:42.377Z,2.00
2023-03-04T07:46:42.312Z,2.00
2023-03-04T07:47:42.242Z,1.70
2023-03-04T07:48:42.217Z,1.70
2023-03-04T07:49:42.221Z,1.60
2023-03-04T07:50:42.244Z,1.80
2023-03-04T07:51:42.194Z,1.70
2023-03-04T07:52:42.193Z,1.80
2023-03-04T07:53:42.192Z,1.90
2023-03-04T07:54:42.185Z,1.70
2023-03-04T07:55:42.188Z,1.80
2023-03-04T07:56:42.138Z,2.00
2023-03-04T07:57:42.130Z,1.90
2023-03-04T07:58:42.113Z,1.70
2023-03-04T07:59:42.118Z,1.80
2023-03-04T08:00:42.120Z,1.90
2023-03-04T08:01:43.256Z,1.70
2023-03-04T08:02:42.157Z,1.80
2023-03-04T08:03:42.148Z,1.70
2023-03-04T08:04:42.078Z,1.80
2023-03-04T08:05:42.056Z,1.80
2023-03-04T08:06:42.062Z,2.00
2023-03-04T08:07:42.029Z,1.80
2023-03-04T08:08:42.033Z,2.10
2023-03-04T08:09:42.017Z,1.60
2023-03-04T08:10:41.998Z,2.10
2023-03-04T08:11:42.093Z,2.20
2023-03-04T08:12:41.978Z,2.30
2023-03-04T08:13:41.963Z,2.30
2023-03-04T08:14:41.965Z,2.60
2023-03-04T08:15:41.974Z,3.30
2023-03-04T08:16:42.023Z,3.20
2023-03-04T08:17:41.968Z,4.10
2023-03-04T08:18:41.944Z,6.80
2023-03-04T08:19:41.913Z,8.30
2023-03-04T08:20:41.898Z,8.50
2023-03-04T08:21:41.907Z,6.70
2023-03-04T08:22:41.915Z,6.00
2023-03-04T08:23:41.914Z,7.20
2023-03-04T08:24:41.874Z,6.20
2023-03-04T08:25:41.850Z,3.70
2023-03-04T08:26:41.972Z,2.70
2023-03-04T08:27:41.814Z,2.40
2023-03-04T08:28:41.842Z,2.60
2023-03-04T08:29:41.807Z,5.90
2023-03-04T08:30:41.811Z,4.70
2023-03-04T08:31:41.903Z,2.40
2023-03-04T08:32:41.918Z,3.10
2023-03-04T08:33:41.780Z,3.80
2023-03-04T08:34:41.772Z,2.90
2023-03-04T08:35:41.818Z,2.40
2023-03-04T08:36:41.728Z,2.40
2023-03-04T08:37:41.740Z,2.00
2023-03-04T08:38:41.715Z,2.10
2023-03-04T08:39:41.741Z,2.10
2023-03-04T08:40:41.708Z,2.00
2023-03-04T08:41:41.697Z,2.30
2023-03-04T08:42:41.678Z,2.50
2023-03-04T08:43:41.736Z,2.00
2023-03-04T08:44:41.638Z,2.50
2023-03-04T08:45:41.687Z,2.20
2023-03-04T08:46:41.618Z,2.20
2023-03-04T08:47:41.629Z,2.50
2023-03-04T08:48:41.637Z,2.40
2023-03-04T08:49:41.601Z,2.10
2023-03-04T08:50:41.591Z,2.10
2023-03-04T08:51:41.611Z,2.00
2023-03-04T08:52:41.605Z,2.00
2023-03-04T08:53:41.566Z,2.10
2023-03-04T08:54:41.550Z,1.90
2023-03-04T08:55:41.553Z,2.00
2023-03-04T08:56:41.524Z,2.00
2023-03-04T08:57:41.626Z,1.90
2023-03-04T08:58:41.550Z,2.00
2023-03-04T08:59:41.487Z,2.30
2023-03-04T09:00:41.473Z,1.90
2023-03-04T09:01:41.548Z,2.10
2023-03-04T09:02:41.487Z,2.00
2023-03-04T09:03:41.559Z,1.90
2023-03-04T09:04:41.453Z,2.50
2023-03-04T09:05:41.432Z,2.10
2023-03-04T09:06:41.417Z,2.30
2023-03-04T09:07:41.459Z,2.00
2023-03-04T09:08:41.458Z,1.90
2023-03-04T09:09:41.402Z,2.10
2023-03-04T09:10:41.410Z,2.50
2023-03-04T09:11:41.363Z,2.30
2023-03-04T09:12:41.340Z,2.30
2023-03-04T09:13:41.382Z,2.40
2023-03-04T09:14:41.347Z,2.20
2023-03-04T09:15:41.438Z,2.00
2023-03-04T09:16:41.340Z,2.70
2023-03-04T09:17:41.313Z,2.20
2023-03-04T09:18:41.520Z,2.10
2023-03-04T09:19:41.286Z,2.20
2023-03-04T09:20:41.273Z,3.00
2023-03-04T09:21:41.280Z,2.80
2023-03-04T09:22:41.244Z,2.40
2023-03-04T09:23:41.256Z,2.30
2023-03-04T09:24:41.247Z,2.60
2023-03-04T09:25:41.243Z,2.10
2023-03-04T09:26:41.201Z,2.70
2023-03-04T09:27:41.244Z,2.20
2023-03-04T09:28:41.180Z,2.80
2023-03-04T09:29:41.210Z,2.70
2023-03-04T09:30:41.164Z,2.90
2023-03-04T09:31:41.183Z,3.30
2023-03-04T09:32:41.125Z,3.60
2023-03-04T09:33:41.177Z,3.40
2023-03-04T09:34:41.246Z,2.50
2023-03-04T09:35:41.181Z,2.70
2023-03-04T09:36:41.116Z,3.10
2023-03-04T09:37:41.798Z,3.20
2023-03-04T09:38:41.091Z,2.10
2023-03-04T09:39:41.107Z,2.60
2023-03-04T09:40:41.077Z,2.60
2023-03-04T09:41:41.057Z,2.10
2023-03-04T09:42:41.027Z,2.20
2023-03-04T09:43:41.036Z,2.10
2023-03-04T09:44:41.012Z,1.60
2023-03-04T09:45:41.025Z,1.70
2023-03-04T09:46:41.020Z,1.70
2023-03-04T09:47:40.989Z,1.90
2023-03-04T09:48:40.971Z,1.70
2023-03-04T09:49:40.986Z,1.70
2023-03-04T09:50:40.964Z,2.20
2023-03-04T09:51:40.976Z,2.20
2023-03-04T09:52:40.972Z,1.80
2023-03-04T09:53:40.926Z,2.00
2023-03-04T09:54:41.597Z,1.60
2023-03-04T09:55:40.935Z,1.80
2023-03-04T09:56:40.910Z,1.80
2023-03-04T09:57:40.892Z,1.70
2023-03-04T09:58:40.891Z,1.80
2023-03-04T09:59:40.883Z,1.50
2023-03-04T10:00:40.969Z,1.50
2023-03-04T10:01:40.839Z,2.00
2023-03-04T10:02:40.854Z,1.50
2023-03-04T10:03:40.883Z,1.70
2023-03-04T10:04:40.900Z,1.70
2023-03-04T10:05:40.788Z,2.20
2023-03-04T10:06:40.773Z,2.00
2023-03-04T10:07:40.815Z,2.10
2023-03-04T10:08:40.756Z,1.70
2023-03-04T10:09:40.755Z,1.50
2023-03-04T10:10:40.807Z,1.80
2023-03-04T10:11:40.750Z,1.70
2023-03-04T10:12:40.748Z,1.60
2023-03-04T10:13:40.738Z,1.60
2023-03-04T10:14:40.705Z,1.80
2023-03-04T10:15:40.768Z,2.00
2023-03-04T10:16:40.763Z,2.00
2023-03-04T10:17:40.699Z,1.90
2023-03-04T10:18:40.668Z,2.10
2023-03-04T10:19:40.670Z,2.10
2023-03-04T10:20:40.648Z,2.10
2023-03-04T10:21:40.638Z,2.00
2023-03-04T10:22:40.611Z,1.90
2023-03-04T10:23:40.631Z,1.60
2023-03-04T10:24:40.585Z,2.00
2023-03-04T10:25:40.631Z,2.10
2023-03-04T10:26:40.579Z,2.00
2023-03-04T10:27:40.560Z,2.00
2023-03-04T10:28:40.535Z,2.20
2023-03-04T10:29:40.574Z,2.20
2023-03-04T10:30:40.574Z,2.10
2023-03-04T10:31:40.578Z,1.90
2023-03-04T10:32:40.605Z,1.80
2023-03-04T10:33:40.543Z,1.80
2023-03-04T10:34:40.476Z,1.60
2023-03-04T10:35:40.499Z,1.60
2023-03-04T10:36:40.445Z,1.70
2023-03-04T10:37:40.488Z,1.80
2023-03-04T10:38:40.455Z,1.90
2023-03-04T10:39:40.433Z,1.60
2023-03-04T10:40:40.436Z,2.40
2023-03-04T10:41:40.453Z,1.90
2023-03-04T10:42:40.504Z,1.60
2023-03-04T10:43:40.398Z,1.60
2023-03-04T10:44:40.388Z,1.60
2023-03-04T10:45:40.404Z,2.70
2023-03-04T10:46:40.351Z,2.00
2023-03-04T10:47:40.380Z,1.50
2023-03-04T10:48:40.331Z,1.60
2023-03-04T10:49:40.335Z,1.50
2023-03-04T10:50:40.309Z,1.70
2023-03-04T10:51:40.315Z,1.80
2023-03-04T10:52:40.287Z,1.50
2023-03-04T10:53:40.308Z,1.80
2023-03-04T10:54:40.300Z,1.90
2023-03-04T10:55:40.257Z,1.90
2023-03-04T10:56:40.265Z,2.50
2023-03-04T10:57:40.253Z,2.90
2023-03-04T10:58:40.254Z,2.00
2023-03-04T10:59:40.327Z,2.00
2023-03-04T11:00:40.230Z,2.30
2023-03-04T11:01:40.222Z,2.40
2023-03-04T11:02:40.175Z,1.50
2023-03-04T11:03:40.261Z,1.70
2023-03-04T11:04:40.164Z,1.70
2023-03-04T11:05:40.165Z,1.70
2023-03-04T11:06:40.129Z,1.70
2023-03-04T11:07:53.880Z,2.00
2023-03-04T11:08:40.140Z,3.00
2023-03-04T11:09:40.120Z,8.00
2023-03-04T11:10:40.109Z,4.20
2023-03-04T11:11:40.099Z,3.50
2023-03-04T11:12:40.047Z,2.90
2023-03-04T11:13:40.070Z,2.10
2023-03-04T11:14:40.044Z,2.70
2023-03-04T11:15:40.045Z,2.50
2023-03-04T11:16:40.084Z,2.30
2023-03-04T11:17:40.039Z,1.90
2023-03-04T11:18:39.998Z,3.90
2023-03-04T11:19:40.031Z,3.40
2023-03-04T11:20:39.968Z,5.00
2023-03-04T11:21:40.426Z,2.70
2023-03-04T11:22:39.967Z,3.30
2023-03-04T11:23:39.965Z,3.30
2023-03-04T11:24:39.922Z,2.70
2023-03-04T11:25:39.994Z,2.70
2023-03-04T11:26:39.913Z,3.70
2023-03-04T11:27:39.911Z,3.50
2023-03-04T11:28:39.949Z,6.30
2023-03-04T11:29:39.918Z,4.10
2023-03-04T11:30:39.848Z,3.00
2023-03-04T11:31:39.939Z,3.60
2023-03-04T11:32:39.980Z,3.00
2023-03-04T11:33:39.827Z,2.40
2023-03-04T11:34:39.815Z,2.10
2023-03-04T11:35:39.874Z,2.30
2023-03-04T11:36:39.820Z,1.80
2023-03-04T11:37:39.792Z,1.80
2023-03-04T11:38:39.839Z,1.70
2023-03-04T11:39:39.809Z,1.70
2023-03-04T11:40:39.770Z,1.90
2023-03-04T11:41:39.768Z,1.90
2023-03-04T11:42:39.775Z,1.90
2023-03-04T11:43:39.735Z,2.10
2023-03-04T11:44:39.714Z,2.10
2023-03-04T11:45:39.959Z,1.80
2023-03-04T11:46:39.712Z,1.50
2023-03-04T11:47:39.772Z,1.50
2023-03-04T11:48:39.711Z,2.20
2023-03-04T11:49:39.723Z,1.80
2023-03-04T11:50:39.693Z,1.80
2023-03-04T11:51:39.660Z,2.20
2023-03-04T11:52:39.657Z,2.10
2023-03-04T11:53:39.663Z,2.00
2023-03-04T11:54:39.661Z,1.90
2023-03-04T11:55:39.622Z,2.00
2023-03-04T11:56:39.605Z,2.40
2023-03-04T11:57:39.615Z,2.40
2023-03-04T11:58:39.646Z,2.30
2023-03-04T11:59:39.579Z,2.20
2023-03-04T12:00:39.605Z,2.40
2023-03-04T12:01:39.591Z,2.70
2023-03-04T12:02:39.563Z,2.80
2023-03-04T12:03:39.586Z,2.50
2023-03-04T12:04:39.610Z,2.70
2023-03-04T12:05:39.543Z,2.50
2023-03-04T12:06:39.515Z,2.60
2023-03-04T12:07:39.550Z,2.90
2023-03-04T12:08:39.487Z,2.50
2023-03-04T12:09:39.499Z,2.40
2023-03-04T12:10:39.467Z,2.70
2023-03-04T12:11:39.586Z,2.60
2023-03-04T12:12:39.454Z,2.70
2023-03-04T12:13:39.473Z,2.40
2023-03-04T12:14:39.432Z,2.20
2023-03-04T12:15:39.480Z,2.50
2023-03-04T12:16:39.415Z,2.20
2023-03-04T12:17:39.442Z,2.30
2023-03-04T12:18:39.425Z,2.10
2023-03-04T12:19:39.425Z,2.40
2023-03-04T12:20:39.398Z,2.10
2023-03-04T12:21:39.400Z,2.10
2023-03-04T12:22:39.394Z,2.00
2023-03-04T12:23:39.387Z,1.70
2023-03-04T12:24:39.418Z,1.80
2023-03-04T12:25:39.311Z,1.70
2023-03-04T12:26:39.286Z,1.70
2023-03-04T12:27:39.317Z,1.50
2023-03-04T12:28:39.325Z,1.60
2023-03-04T12:29:39.270Z,1.80
2023-03-04T12:30:39.236Z,1.50
2023-03-04T12:31:39.396Z,1.50
2023-03-04T12:32:39.320Z,1.60
2023-03-04T12:33:39.274Z,1.70
2023-03-04T12:34:39.271Z,1.50
2023-03-04T12:35:39.249Z,1.40
2023-03-04T12:36:39.178Z,1.60
2023-03-04T12:37:39.217Z,1.40
2023-03-04T12:38:39.144Z,1.50
2023-03-04T12:39:39.175Z,1.40
2023-03-04T12:40:39.136Z,1.40
2023-03-04T12:41:39.120Z,1.40
2023-03-04T12:42:39.110Z,1.50
2023-03-04T12:43:39.157Z,1.50
2023-03-04T12:44:39.147Z,1.60
2023-03-04T12:45:39.105Z,1.40
2023-03-04T12:46:39.151Z,1.70
2023-03-04T12:47:39.109Z,1.60
2023-03-04T12:48:39.108Z,1.60
2023-03-04T12:49:39.029Z,1.30
2023-03-04T12:50:39.024Z,1.50
2023-03-04T12:51:39.062Z,1.80
2023-03-04T12:52:39.017Z,1.70
2023-03-04T12:53:39.039Z,1.60
2023-03-04T12:54:39.057Z,1.40
2023-03-04T12:55:38.977Z,1.70
2023-03-04T12:56:38.966Z,1.60
2023-03-04T12:57:38.954Z,1.60
2023-03-04T12:58:38.957Z,1.50
2023-03-04T12:59:38.945Z,1.60
2023-03-04T13:00:38.951Z,1.70
2023-03-04T13:01:38.927Z,1.50
2023-03-04T13:02:39.049Z,1.40
2023-03-04T13:03:38.932Z,1.50
2023-03-04T13:04:38.911Z,1.70
2023-03-04T13:05:38.861Z,1.30
2023-03-04T13:06:38.897Z,1.60
2023-03-04T13:07:38.855Z,1.70
2023-03-04T13:08:38.839Z,1.40
2023-03-04T13:09:38.836Z,4.40
2023-03-04T13:10:38.870Z,1.40
2023-03-04T13:11:38.866Z,1.40
2023-03-04T13:12:38.803Z,1.60
2023-03-04T13:13:38.784Z,1.40
2023-03-04T13:14:38.789Z,1.60
2023-03-04T13:15:38.780Z,1.60
2023-03-04T13:16:38.763Z,1.20
2023-03-04T13:17:39.113Z,1.70
2023-03-04T13:18:38.723Z,1.70